createdAt,value
2022-10-05T00:01:31.077Z,9.40
2022-10-05T00:04:11.017Z,9.20
2022-10-05T00:09:14.731Z,8.90
2022-10-05T00:11:46.066Z,8.90
2022-10-05T00:14:18.725Z,8.90
2022-10-05T00:16:49.657Z,9.00
2022-10-05T00:19:23.190Z,9.00
2022-10-05T00:21:51.652Z,9.00
2022-10-05T00:24:24.320Z,9.00
2022-10-05T00:29:26.441Z,9.00
2022-10-05T00:31:54.814Z,9.00
2022-10-05T00:34:26.816Z,8.90
2022-10-05T00:36:55.229Z,8.80
2022-10-05T00:42:19.760Z,8.90
2022-10-05T00:44:54.131Z,8.80
2022-10-05T00:47:42.651Z,8.70
2022-10-05T00:50:27.431Z,8.60
2022-10-05T00:53:05.611Z,8.60
2022-10-05T00:55:46.159Z,8.40
2022-10-05T00:58:26.291Z,8.40
2022-10-05T01:01:10.421Z,8.30
2022-10-05T01:03:49.865Z,8.30
2022-10-05T01:06:26.019Z,8.30
2022-10-05T01:09:04.891Z,8.20
2022-10-05T01:11:39.685Z,8.30
2022-10-05T01:14:16.367Z,8.30
2022-10-05T01:16:56.091Z,8.20
2022-10-05T01:19:44.710Z,8.20
2022-10-05T01:22:21.727Z,8.20
2022-10-05T01:25:02.300Z,8.20
2022-10-05T01:27:39.990Z,8.30
2022-10-05T01:30:12.064Z,8.30
2022-10-05T01:32:49.963Z,8.40
2022-10-05T01:35:30.631Z,8.40
2022-10-05T01:38:07.180Z,8.40
2022-10-05T01:40:45.917Z,8.40
2022-10-05T01:43:24.971Z,8.50
2022-10-05T01:46:01.964Z,8.50
2022-10-05T01:48:44.317Z,8.50
2022-10-05T01:51:20.480Z,8.50
2022-10-05T01:54:02.981Z,8.40
2022-10-05T01:56:40.747Z,8.30
2022-10-05T01:59:20.256Z,8.20
2022-10-05T02:01:55.791Z,8.20
2022-10-05T02:04:56.971Z,8.20
2022-10-05T02:07:24.681Z,8.20
2022-10-05T02:09:59.706Z,8.10
2022-10-05T02:12:34.148Z,8.10
2022-10-05T02:15:13.728Z,8.10
2022-10-05T02:17:47.224Z,8.20
2022-10-05T02:20:21.007Z,8.20
2022-10-05T02:22:54.124Z,8.20
2022-10-05T02:25:28.023Z,8.40
2022-10-05T02:28:02.984Z,8.40
2022-10-05T02:30:35.297Z,8.30
2022-10-05T02:33:10.437Z,8.30
2022-10-05T02:35:41.048Z,9.30
2022-10-05T02:38:15.527Z,8.40
2022-10-05T02:40:55.118Z,8.30
2022-10-05T02:43:39.014Z,8.10
2022-10-05T02:46:19.723Z,8.00
2022-10-05T02:49:00.818Z,8.00
2022-10-05T02:51:34.707Z,8.00
2022-10-05T02:54:16.607Z,8.00
2022-10-05T02:56:54.970Z,7.90
2022-10-05T02:59:29.742Z,7.90
2022-10-05T03:02:07.483Z,7.90
2022-10-05T03:04:43.378Z,7.90
2022-10-05T03:07:18.355Z,8.00
2022-10-05T03:10:01.028Z,8.00
2022-10-05T03:12:52.705Z,8.00
2022-10-05T03:15:48.912Z,8.10
2022-10-05T03:18:31.025Z,8.20
2022-10-05T03:21:13.387Z,8.30
2022-10-05T03:23:54.491Z,8.40
2022-10-05T03:26:36.020Z,8.50
2022-10-05T03:29:21.253Z,8.60
2022-10-05T03:31:58.836Z,8.60
2022-10-05T03:34:35.027Z,8.60
2022-10-05T03:37:10.151Z,8.70
2022-10-05T03:39:43.175Z,8.90
2022-10-05T03:42:19.623Z,8.90
2022-10-05T03:44:53.042Z,9.00
2022-10-05T03:47:30.049Z,9.00
2022-10-05T03:50:22.092Z,9.20
2022-10-05T03:52:56.033Z,9.20
2022-10-05T03:55:30.410Z,9.30
2022-10-05T03:58:04.791Z,9.30
2022-10-05T04:00:35.226Z,9.40
2022-10-05T04:03:11.198Z,9.50
2022-10-05T04:05:48.679Z,9.50
2022-10-05T04:08:24.288Z,9.60
2022-10-05T04:10:56.009Z,9.40
2022-10-05T04:13:32.607Z,9.40
2022-10-05T04:16:05.197Z,9.30
2022-10-05T04:18:38.201Z,9.20
2022-10-05T04:21:14.553Z,9.30
2022-10-05T04:23:50.858Z,9.30
2022-10-05T04:26:30.674Z,9.40
2022-10-05T04:29:05.940Z,9.60
2022-10-05T04:31:56.115Z,9.60
2022-10-05T04:34:47.065Z,9.70
2022-10-05T04:37:22.807Z,9.70
2022-10-05T04:40:05.029Z,9.70
2022-10-05T04:42:39.094Z,9.80
2022-10-05T04:45:21.811Z,10.00
2022-10-05T04:48:09.824Z,10.10
2022-10-05T04:50:50.786Z,10.30
2022-10-05T04:53:30.467Z,10.40
2022-10-05T04:56:07.412Z,10.50
2022-10-05T04:58:51.788Z,11.40
2022-10-05T05:01:40.049Z,10.60
2022-10-05T05:04:29.085Z,10.70
2022-10-05T05:07:12.478Z,10.70
2022-10-05T05:10:26.357Z,10.60
2022-10-05T05:13:08.786Z,10.60
2022-10-05T05:15:47.553Z,10.70
2022-10-05T05:18:50.246Z,10.50
2022-10-05T05:21:32.931Z,10.50
2022-10-05T05:24:06.888Z,10.50
2022-10-05T05:26:49.316Z,10.40
2022-10-05T05:32:21.180Z,10.40
2022-10-05T05:35:04.610Z,10.40
2022-10-05T05:37:37.361Z,10.40
2022-10-05T05:40:15.261Z,10.40
2022-10-05T05:42:54.076Z,10.50
2022-10-05T05:45:30.995Z,10.50
2022-10-05T05:48:04.028Z,10.50
2022-10-05T05:50:42.985Z,10.50
2022-10-05T05:53:19.958Z,10.50
2022-10-05T05:55:54.196Z,10.50
2022-10-05T05:59:15.671Z,10.60
2022-10-05T06:01:50.002Z,10.60
2022-10-05T06:04:24.112Z,10.50
2022-10-05T06:07:00.159Z,10.60
2022-10-05T06:09:34.905Z,10.60
2022-10-05T06:12:25.263Z,10.60
2022-10-05T06:15:00.848Z,10.60
2022-10-05T06:17:36.774Z,10.60
2022-10-05T06:20:13.449Z,10.60
2022-10-05T06:22:46.519Z,10.70
2022-10-05T06:25:26.935Z,10.70
2022-10-05T06:28:11.487Z,10.70
2022-10-05T06:30:59.670Z,10.70
2022-10-05T06:33:46.134Z,10.90
2022-10-05T06:36:36.031Z,11.00
2022-10-05T06:39:30.267Z,10.90
2022-10-05T06:42:34.251Z,10.90
2022-10-05T06:45:41.982Z,10.90
2022-10-05T06:48:45.661Z,10.90
2022-10-05T06:51:39.331Z,11.00
2022-10-05T06:54:24.019Z,11.00
2022-10-05T06:57:03.334Z,11.00
2022-10-05T06:59:41.134Z,10.90
2022-10-05T07:02:22.211Z,11.00
2022-10-05T07:05:08.725Z,10.90
2022-10-05T07:07:46.577Z,11.00
2022-10-05T07:10:29.544Z,11.00
2022-10-05T07:13:26.701Z,10.90
2022-10-05T07:16:04.258Z,11.10
2022-10-05T07:18:50.510Z,11.00
2022-10-05T07:21:31.679Z,11.00
2022-10-05T07:24:10.414Z,11.00
2022-10-05T07:26:46.541Z,11.10
2022-10-05T07:29:30.061Z,11.20
2022-10-05T07:32:11.790Z,11.30
2022-10-05T07:34:48.904Z,11.60
2022-10-05T07:37:45.457Z,11.60
2022-10-05T07:40:18.740Z,11.70
2022-10-05T07:43:00.499Z,11.80
2022-10-05T07:45:34.668Z,11.60
2022-10-05T07:48:14.089Z,11.90
2022-10-05T07:50:54.620Z,11.90
2022-10-05T07:53:28.748Z,12.10
2022-10-05T07:56:02.108Z,12.20
2022-10-05T07:58:36.526Z,12.20
2022-10-05T08:01:13.229Z,12.10
2022-10-05T08:03:53.718Z,12.30
2022-10-05T08:06:42.600Z,12.40
2022-10-05T08:09:36.837Z,12.20
2022-10-05T08:12:22.813Z,12.20
2022-10-05T08:14:57.438Z,12.10
2022-10-05T08:17:39.891Z,12.20
2022-10-05T08:20:23.035Z,12.00
2022-10-05T08:22:59.326Z,12.00
2022-10-05T08:25:42.558Z,12.00
2022-10-05T08:28:18.679Z,12.20
2022-10-05T08:30:57.764Z,12.10
2022-10-05T08:33:38.661Z,12.30
2022-10-05T08:36:12.228Z,12.30
2022-10-05T08:38:41.575Z,12.30
2022-10-05T08:41:43.952Z,12.30
2022-10-05T08:44:40.109Z,12.40
2022-10-05T08:47:21.036Z,12.40
2022-10-05T08:50:08.583Z,12.40
2022-10-05T08:52:54.036Z,12.50
2022-10-05T08:55:40.919Z,12.50
2022-10-05T08:58:32.759Z,12.60
2022-10-05T09:01:12.183Z,12.60
2022-10-05T09:04:10.840Z,12.70
2022-10-05T09:07:17.970Z,12.70
2022-10-05T09:10:29.324Z,12.70
2022-10-05T09:13:21.143Z,12.70
2022-10-05T09:16:15.266Z,12.80
2022-10-05T09:19:03.589Z,12.80
2022-10-05T09:21:43.226Z,12.80
2022-10-05T09:24:27.899Z,12.80
2022-10-05T09:27:04.414Z,12.60
2022-10-05T09:30:09.000Z,12.60
2022-10-05T09:33:04.510Z,12.60
2022-10-05T09:36:16.129Z,13.10
2022-10-05T09:39:21.618Z,13.10
2022-10-05T09:42:33.557Z,13.30
2022-10-05T09:45:45.071Z,13.70
2022-10-05T09:48:48.918Z,13.70
2022-10-05T09:52:00.497Z,13.60
2022-10-05T09:55:09.214Z,13.70
2022-10-05T09:58:35.317Z,13.90
2022-10-05T10:01:37.770Z,14.10
2022-10-05T10:04:30.518Z,14.20
2022-10-05T10:07:49.026Z,14.00
2022-10-05T10:10:50.437Z,14.10
2022-10-05T10:13:35.145Z,14.10
2022-10-05T10:16:28.107Z,14.30
2022-10-05T10:19:21.199Z,14.80
2022-10-05T10:22:12.904Z,15.00
2022-10-05T10:25:00.401Z,15.30
2022-10-05T10:27:54.469Z,15.30
2022-10-05T10:30:42.082Z,15.60
2022-10-05T10:33:38.614Z,15.70
2022-10-05T10:36:15.392Z,15.70
2022-10-05T10:38:55.964Z,15.50
2022-10-05T10:42:04.402Z,15.50
2022-10-05T10:44:58.931Z,15.50
2022-10-05T10:48:01.418Z,15.70
2022-10-05T10:51:11.586Z,16.00
2022-10-05T10:54:26.752Z,15.90
2022-10-05T10:57:03.658Z,16.00
2022-10-05T11:00:08.420Z,16.30
2022-10-05T11:02:55.635Z,16.10
2022-10-05T11:06:01.441Z,16.00
2022-10-05T11:08:57.529Z,15.70
2022-10-05T11:12:01.789Z,15.70
2022-10-05T11:15:10.134Z,15.70
2022-10-05T11:18:00.591Z,15.80
2022-10-05T11:21:04.735Z,15.80
2022-10-05T11:24:21.378Z,15.90
2022-10-05T11:27:24.148Z,16.00
2022-10-05T11:30:16.580Z,16.10
2022-10-05T11:33:21.035Z,16.10
2022-10-05T11:36:22.295Z,16.30
2022-10-05T11:39:17.303Z,16.50
2022-10-05T11:42:24.221Z,16.50
2022-10-05T11:45:23.005Z,16.60
2022-10-05T11:48:27.064Z,16.80
2022-10-05T11:51:27.908Z,17.20
2022-10-05T11:54:18.636Z,17.00
2022-10-05T11:56:54.679Z,17.50
2022-10-05T11:59:36.610Z,17.70
2022-10-05T12:02:25.748Z,18.00
2022-10-05T12:05:03.867Z,18.10
2022-10-05T12:07:51.357Z,17.90
2022-10-05T12:10:33.238Z,18.10
2022-10-05T12:13:18.851Z,17.80
2022-10-05T12:16:16.140Z,17.90
2022-10-05T12:19:19.428Z,17.80
2022-10-05T12:22:18.192Z,17.90
2022-10-05T12:25:26.476Z,17.60
2022-10-05T12:28:04.985Z,17.80
2022-10-05T12:30:58.879Z,17.90
2022-10-05T12:33:35.667Z,18.20
2022-10-05T12:36:09.611Z,17.90
2022-10-05T12:38:45.387Z,17.80
2022-10-05T12:41:22.825Z,17.60
2022-10-05T12:44:08.857Z,17.60
2022-10-05T12:46:49.670Z,18.00
2022-10-05T12:49:41.350Z,18.00
2022-10-05T12:52:18.554Z,17.90
2022-10-05T12:55:03.268Z,17.80
2022-10-05T12:57:41.816Z,17.90
2022-10-05T13:00:13.329Z,17.90
2022-10-05T13:02:48.505Z,17.80
2022-10-05T13:08:31.047Z,17.80
2022-10-05T13:11:14.902Z,17.80
2022-10-05T13:14:05.985Z,17.60
2022-10-05T13:16:53.933Z,17.60
2022-10-05T13:19:40.098Z,18.00
2022-10-05T13:22:38.010Z,18.20
2022-10-05T13:25:20.298Z,18.20
2022-10-05T13:27:58.965Z,18.20
2022-10-05T13:30:29.841Z,18.10
2022-10-05T13:33:05.606Z,18.00
2022-10-05T13:35:46.001Z,17.90
2022-10-05T13:38:28.701Z,18.10
2022-10-05T13:41:06.855Z,18.10
2022-10-05T13:43:40.572Z,18.30
2022-10-05T13:46:15.163Z,18.30
2022-10-05T13:48:53.825Z,18.50
2022-10-05T13:51:26.494Z,18.40
2022-10-05T13:54:05.948Z,18.40
2022-10-05T13:56:38.750Z,18.20
2022-10-05T13:59:17.615Z,18.30
2022-10-05T14:01:53.298Z,18.40
2022-10-05T14:04:24.741Z,18.90
2022-10-05T14:06:55.392Z,19.70
2022-10-05T14:09:33.512Z,18.70
2022-10-05T14:12:16.754Z,18.60
2022-10-05T14:14:49.442Z,18.50
2022-10-05T14:17:33.564Z,18.60
2022-10-05T14:20:17.340Z,18.70
2022-10-05T14:22:58.999Z,18.90
2022-10-05T14:25:29.702Z,18.70
2022-10-05T14:28:04.305Z,18.60
2022-10-05T14:30:36.256Z,18.60
2022-10-05T14:33:18.079Z,18.70
2022-10-05T14:35:50.445Z,18.90
2022-10-05T14:38:26.025Z,19.00
2022-10-05T14:41:18.930Z,19.00
2022-10-05T14:43:53.909Z,18.90
2022-10-05T14:46:27.935Z,19.00
2022-10-05T14:49:21.712Z,18.90
2022-10-05T14:51:53.450Z,18.90
2022-10-05T14:54:42.079Z,19.00
2022-10-05T14:57:25.453Z,18.90
2022-10-05T15:00:06.949Z,19.00
2022-10-05T15:03:06.753Z,19.20
2022-10-05T15:05:42.308Z,19.20
2022-10-05T15:08:25.913Z,19.10
2022-10-05T15:11:03.722Z,18.90
2022-10-05T15:13:39.463Z,18.90
2022-10-05T15:16:20.486Z,19.00
2022-10-05T15:18:57.077Z,19.00
2022-10-05T15:21:48.354Z,19.10
2022-10-05T15:24:25.027Z,19.10
2022-10-05T15:27:02.858Z,19.10
2022-10-05T15:30:04.700Z,19.10
2022-10-05T15:32:48.312Z,19.10
2022-10-05T15:35:36.103Z,19.10
2022-10-05T15:38:16.344Z,19.00
2022-10-05T15:40:50.532Z,19.00
2022-10-05T15:43:22.783Z,19.00
2022-10-05T15:46:02.776Z,18.90
2022-10-05T15:48:43.624Z,18.90
2022-10-05T15:51:25.315Z,18.90
2022-10-05T15:54:16.756Z,18.90
2022-10-05T15:56:53.438Z,18.90
2022-10-05T15:59:31.769Z,18.90
2022-10-05T16:02:08.434Z,18.90
2022-10-05T16:04:47.423Z,18.90
2022-10-05T16:07:39.441Z,18.80
2022-10-05T16:10:17.367Z,18.70
2022-10-05T16:13:00.917Z,18.60
2022-10-05T16:15:39.750Z,18.70
2022-10-05T16:18:47.337Z,18.60
2022-10-05T16:21:26.660Z,18.60
2022-10-05T16:24:09.536Z,18.50
2022-10-05T16:26:49.058Z,18.40
2022-10-05T16:29:30.360Z,18.30
2022-10-05T16:32:07.745Z,18.30
2022-10-05T16:34:55.175Z,18.30
2022-10-05T16:37:33.662Z,18.20
2022-10-05T16:40:20.393Z,18.10
2022-10-05T16:42:59.197Z,18.10
2022-10-05T16:45:45.400Z,18.10
2022-10-05T16:48:27.133Z,17.80
2022-10-05T16:51:22.844Z,17.60
2022-10-05T16:54:31.689Z,17.20
2022-10-05T16:57:22.160Z,17.00
2022-10-05T17:00:22.421Z,16.90
2022-10-05T17:03:30.619Z,16.60
2022-10-05T17:06:41.355Z,16.40
2022-10-05T17:09:38.821Z,16.30
2022-10-05T17:12:34.855Z,16.10
2022-10-05T17:15:30.186Z,16.00
2022-10-05T17:18:18.399Z,16.00
2022-10-05T17:23:51.172Z,15.70
2022-10-05T17:26:56.521Z,15.70
2022-10-05T17:29:39.952Z,15.60
2022-10-05T17:35:25.274Z,15.40
2022-10-05T17:38:25.373Z,15.30
2022-10-05T17:44:26.419Z,15.20
2022-10-05T17:47:00.373Z,15.10
2022-10-05T17:50:17.832Z,15.10
2022-10-05T17:55:45.362Z,14.90
2022-10-05T17:59:06.836Z,14.80
2022-10-05T18:01:48.866Z,14.90
2022-10-05T18:04:42.437Z,14.80
2022-10-05T18:07:28.656Z,14.90
2022-10-05T18:10:16.806Z,14.90
2022-10-05T18:12:50.940Z,14.90
2022-10-05T18:15:48.837Z,14.90
2022-10-05T18:18:38.789Z,14.70
2022-10-05T18:21:30.655Z,14.60
2022-10-05T18:24:07.452Z,14.50
2022-10-05T18:26:47.765Z,14.60
2022-10-05T18:29:53.219Z,14.40
2022-10-05T18:32:32.059Z,14.50
2022-10-05T18:35:11.521Z,14.40
2022-10-05T18:37:53.270Z,14.50
2022-10-05T18:40:37.141Z,14.40
2022-10-05T18:43:23.715Z,14.40
2022-10-05T18:46:10.095Z,14.30
2022-10-05T18:48:48.802Z,14.30
2022-10-05T18:51:26.428Z,14.20
2022-10-05T18:54:06.370Z,14.10
2022-10-05T18:56:42.389Z,14.10
2022-10-05T18:59:27.825Z,14.10
2022-10-05T19:02:07.133Z,14.10
2022-10-05T19:04:51.509Z,14.00
2022-10-05T19:07:30.135Z,14.00
2022-10-05T19:10:10.190Z,13.90
2022-10-05T19:12:53.501Z,13.90
2022-10-05T19:15:29.307Z,13.70
2022-10-05T19:18:37.020Z,13.70
2022-10-05T19:21:14.829Z,13.80
2022-10-05T19:24:08.286Z,13.70
2022-10-05T19:26:54.899Z,13.70
2022-10-05T19:29:43.667Z,13.70
2022-10-05T19:32:23.159Z,13.70
2022-10-05T19:35:08.577Z,13.60
2022-10-05T19:37:50.924Z,13.50
2022-10-05T19:40:30.975Z,13.40
2022-10-05T19:43:42.139Z,13.40
2022-10-05T19:46:27.863Z,13.40
2022-10-05T19:51:33.415Z,13.40
2022-10-05T19:54:04.015Z,13.40
2022-10-05T19:56:36.584Z,13.40
2022-10-05T19:59:14.578Z,13.40
2022-10-05T20:01:50.935Z,13.30
2022-10-05T20:04:35.326Z,13.30
2022-10-05T20:07:06.746Z,13.20
2022-10-05T20:09:55.813Z,13.10
2022-10-05T20:15:36.192Z,13.10
2022-10-05T20:19:06.818Z,12.30
2022-10-05T20:21:52.750Z,13.00
2022-10-05T20:24:28.277Z,13.00
2022-10-05T20:27:16.094Z,12.90
2022-10-05T20:29:46.948Z,12.90
2022-10-05T20:32:20.224Z,12.90
2022-10-05T20:34:56.076Z,12.90
2022-10-05T20:37:30.074Z,12.90
2022-10-05T20:40:05.415Z,12.80
2022-10-05T20:42:35.711Z,12.80
2022-10-05T20:45:04.786Z,12.90
2022-10-05T20:55:11.392Z,13.00
2022-10-05T21:00:13.649Z,12.80
2022-10-05T21:07:41.242Z,12.80
2022-10-05T21:17:56.688Z,12.60
2022-10-05T21:30:30.934Z,12.40
2022-10-05T21:45:33.731Z,12.30
2022-10-05T21:53:02.120Z,12.30
2022-10-05T21:58:03.343Z,12.20
2022-10-05T22:00:34.351Z,12.30
2022-10-05T22:15:36.024Z,12.30
2022-10-05T22:28:10.312Z,12.20
2022-10-05T22:30:39.284Z,12.20
2022-10-05T22:33:08.007Z,12.10
2022-10-05T22:35:38.248Z,12.10
2022-10-05T22:40:36.571Z,11.90
2022-10-05T22:45:36.398Z,11.70
2022-10-05T22:48:06.380Z,11.80
2022-10-05T22:53:03.232Z,11.80
2022-10-05T22:55:31.497Z,11.90
2022-10-05T23:00:53.462Z,11.80
2022-10-05T23:03:17.942Z,12.80
2022-10-05T23:05:46.002Z,11.90
2022-10-05T23:08:14.358Z,12.10
2022-10-05T23:18:08.539Z,11.90
2022-10-05T23:23:06.577Z,12.00
2022-10-05T23:25:34.651Z,12.00
2022-10-05T23:28:03.579Z,12.00
2022-10-05T23:30:31.834Z,12.00
2022-10-05T23:33:00.502Z,12.00
2022-10-05T23:35:28.674Z,11.90
2022-10-05T23:40:26.896Z,11.90
2022-10-05T23:42:55.083Z,12.50
2022-10-05T23:45:23.222Z,11.90
2022-10-05T23:47:51.419Z,11.90
2022-10-05T23:50:21.093Z,11.80
2022-10-05T23:52:49.267Z,11.80
2022-10-05T23:55:18.699Z,11.70
2022-10-05T23:57:46.909Z,11.70
